createdAt,value
2022-11-27T00:01:10.024Z,14.43
2022-11-27T00:03:37.438Z,13.55
2022-11-27T00:06:04.899Z,13.32
2022-11-27T00:08:32.131Z,12.60
2022-11-27T00:11:04.992Z,12.63
2022-11-27T00:13:32.115Z,13.75
2022-11-27T00:15:59.389Z,13.77
2022-11-27T00:18:26.786Z,12.18
2022-11-27T00:20:54.103Z,12.57
2022-11-27T00:23:21.234Z,12.10
2022-11-27T00:25:54.643Z,13.40
2022-11-27T00:28:22.007Z,12.20
2022-11-27T00:30:49.212Z,12.88
2022-11-27T00:33:16.397Z,13.57
2022-11-27T00:35:43.607Z,12.23
2022-11-27T00:38:10.838Z,11.45
2022-11-27T00:40:38.037Z,11.75
2022-11-27T00:43:05.175Z,11.27
2022-11-27T00:45:32.331Z,12.15
2022-11-27T00:47:59.490Z,11.35
2022-11-27T00:50:26.800Z,11.05
2022-11-27T00:52:53.952Z,11.52
2022-11-27T00:55:21.170Z,11.60
2022-11-27T00:57:48.358Z,12.38
2022-11-27T01:00:15.784Z,11.43
2022-11-27T01:02:43.021Z,11.95
2022-11-27T01:05:10.306Z,11.77
2022-11-27T01:07:37.695Z,11.90
2022-11-27T01:10:05.080Z,10.73
2022-11-27T01:12:32.820Z,10.48
2022-11-27T01:14:59.981Z,10.57
2022-11-27T01:17:27.160Z,12.23
2022-11-27T01:19:54.375Z,11.32
2022-11-27T01:22:21.551Z,11.38
2022-11-27T01:24:48.758Z,11.55
2022-11-27T01:27:16.047Z,12.68
2022-11-27T01:29:43.222Z,12.55
2022-11-27T01:32:10.505Z,11.73
2022-11-27T01:34:37.918Z,11.95
2022-11-27T01:37:05.404Z,13.07
2022-11-27T01:39:32.614Z,11.20
2022-11-27T01:41:59.978Z,9.70
2022-11-27T01:44:27.301Z,10.63
2022-11-27T01:46:56.862Z,10.40
2022-11-27T01:49:31.606Z,11.23
2022-11-27T01:52:01.715Z,11.93
2022-11-27T01:54:42.625Z,13.18
2022-11-27T01:57:16.200Z,10.32
2022-11-27T01:59:43.564Z,11.57
2022-11-27T02:02:10.840Z,11.27
2022-11-27T02:04:38.276Z,12.25
2022-11-27T02:07:05.773Z,11.80
2022-11-27T02:09:33.438Z,11.43
2022-11-27T02:12:15.457Z,12.85
2022-11-27T02:14:55.659Z,12.40
2022-11-27T02:17:43.970Z,11.88
2022-11-27T02:20:14.216Z,11.52
2022-11-27T02:23:00.269Z,11.98
2022-11-27T02:25:32.229Z,11.88
2022-11-27T02:28:22.408Z,10.55
2022-11-27T02:30:53.541Z,11.95
2022-11-27T02:33:21.516Z,11.30
2022-11-27T02:35:56.549Z,11.15
2022-11-27T02:38:41.716Z,10.88
2022-11-27T02:41:41.393Z,9.40
2022-11-27T02:44:09.999Z,11.02
2022-11-27T02:46:37.683Z,10.40
2022-11-27T02:49:08.183Z,12.02
2022-11-27T02:51:44.150Z,12.65
2022-11-27T02:54:14.592Z,13.32
2022-11-27T02:56:42.660Z,12.30
2022-11-27T02:59:11.813Z,11.05
2022-11-27T03:01:43.847Z,11.52
2022-11-27T03:04:14.085Z,10.95
2022-11-27T03:06:45.668Z,9.85
2022-11-27T03:09:23.517Z,10.73
2022-11-27T03:11:50.809Z,9.02
2022-11-27T03:14:20.341Z,9.73
2022-11-27T03:17:01.165Z,9.30
2022-11-27T03:19:57.679Z,9.73
2022-11-27T03:22:26.847Z,8.93
2022-11-27T03:24:54.349Z,9.23
2022-11-27T03:27:29.847Z,9.75
2022-11-27T03:29:58.833Z,10.05
2022-11-27T03:32:27.193Z,10.77
2022-11-27T03:34:54.446Z,9.55
2022-11-27T03:37:22.420Z,10.38
2022-11-27T03:39:49.835Z,9.27
2022-11-27T03:42:35.979Z,8.68
2022-11-27T03:45:03.167Z,8.15
2022-11-27T03:47:30.354Z,9.32
2022-11-27T03:49:57.645Z,9.57
2022-11-27T03:52:28.844Z,9.15
2022-11-27T03:55:02.161Z,8.32
2022-11-27T03:57:41.663Z,8.10
2022-11-27T04:00:09.630Z,8.52
2022-11-27T04:02:51.364Z,8.25
2022-11-27T04:05:18.935Z,8.50
2022-11-27T04:07:46.213Z,10.05
2022-11-27T04:10:14.259Z,9.68
2022-11-27T04:12:41.538Z,9.50
2022-11-27T04:15:09.025Z,9.55
2022-11-27T04:17:36.417Z,9.65
2022-11-27T04:20:04.108Z,10.43
2022-11-27T04:22:31.571Z,9.75
2022-11-27T04:24:58.888Z,8.77
2022-11-27T04:27:26.081Z,9.45
2022-11-27T04:29:53.320Z,10.57
2022-11-27T04:32:20.502Z,10.50
2022-11-27T04:34:47.741Z,9.75
2022-11-27T04:37:14.977Z,9.68
2022-11-27T04:39:42.236Z,10.07
2022-11-27T04:42:09.467Z,9.32
2022-11-27T04:44:37.048Z,8.85
2022-11-27T04:47:04.489Z,8.95
2022-11-27T04:49:31.866Z,9.43
2022-11-27T04:51:59.059Z,8.38
2022-11-27T04:54:26.207Z,8.93
2022-11-27T04:56:53.368Z,7.95
2022-11-27T04:59:21.170Z,8.70
2022-11-27T05:01:48.406Z,8.38
2022-11-27T05:04:15.674Z,8.35
2022-11-27T05:06:42.852Z,8.40
2022-11-27T05:09:10.074Z,7.90
2022-11-27T05:11:37.358Z,8.52
2022-11-27T05:14:20.808Z,8.10
2022-11-27T05:16:49.676Z,10.07
2022-11-27T05:19:17.685Z,8.80
2022-11-27T05:21:45.713Z,8.38
2022-11-27T05:24:13.771Z,8.15
2022-11-27T05:26:41.525Z,9.80
2022-11-27T05:29:09.147Z,9.52
2022-11-27T05:31:36.880Z,9.13
2022-11-27T05:34:04.274Z,9.63
2022-11-27T05:36:31.834Z,9.25
2022-11-27T05:38:59.132Z,9.70
2022-11-27T05:41:26.327Z,8.23
2022-11-27T05:43:53.625Z,8.98
2022-11-27T05:46:21.611Z,9.85
2022-11-27T05:48:48.949Z,9.32
2022-11-27T05:51:16.712Z,9.82
2022-11-27T05:53:43.956Z,8.25
2022-11-27T05:56:12.638Z,8.45
2022-11-27T05:58:40.419Z,7.95
2022-11-27T06:01:08.286Z,8.23
2022-11-27T06:03:35.866Z,8.10
2022-11-27T06:06:13.439Z,9.05
2022-11-27T06:08:41.327Z,8.40
2022-11-27T06:11:09.505Z,8.07
2022-11-27T06:13:36.782Z,8.77
2022-11-27T06:16:12.433Z,9.27
2022-11-27T06:18:40.161Z,8.43
2022-11-27T06:21:11.881Z,8.60
2022-11-27T06:23:39.067Z,7.95
2022-11-27T06:26:10.986Z,8.05
2022-11-27T06:28:38.493Z,8.10
2022-11-27T06:31:06.944Z,7.95
2022-11-27T06:33:34.540Z,7.95
2022-11-27T06:36:02.046Z,8.93
2022-11-27T06:38:29.540Z,8.88
2022-11-27T06:40:56.744Z,11.05
2022-11-27T06:43:24.035Z,9.55
2022-11-27T06:45:58.574Z,10.73
2022-11-27T06:48:25.905Z,9.38
2022-11-27T06:50:53.148Z,10.10
2022-11-27T06:53:20.662Z,10.00
2022-11-27T06:55:47.969Z,11.93
2022-11-27T06:58:15.200Z,10.75
2022-11-27T07:00:42.403Z,11.13
2022-11-27T07:03:09.748Z,10.30
2022-11-27T07:05:37.207Z,11.48
2022-11-27T07:08:04.571Z,10.63
2022-11-27T07:10:34.175Z,13.50
2022-11-27T07:13:01.583Z,14.90
2022-11-27T07:15:28.775Z,13.27
2022-11-27T07:17:55.971Z,10.60
2022-11-27T07:20:23.217Z,9.88
2022-11-27T07:22:50.646Z,10.25
2022-11-27T07:25:17.879Z,12.18
2022-11-27T07:27:50.402Z,10.75
2022-11-27T07:30:18.248Z,13.25
2022-11-27T07:32:45.468Z,12.45
2022-11-27T07:35:12.799Z,11.60
2022-11-27T07:37:42.066Z,12.07
2022-11-27T07:40:09.557Z,12.73
2022-11-27T07:42:38.480Z,12.45
2022-11-27T07:45:07.220Z,13.63
2022-11-27T07:47:34.379Z,17.50
2022-11-27T07:50:01.756Z,16.33
2022-11-27T07:52:29.097Z,15.75
2022-11-27T07:54:56.250Z,21.67
2022-11-27T07:57:23.576Z,20.73
2022-11-27T07:59:50.739Z,35.60
2022-11-27T08:02:18.005Z,19.60
2022-11-27T08:04:45.309Z,27.98
2022-11-27T08:07:13.045Z,25.73
2022-11-27T08:09:40.339Z,24.80
2022-11-27T08:12:08.096Z,29.60
2022-11-27T08:14:35.375Z,61.20
2022-11-27T08:17:03.033Z,34.30
2022-11-27T08:19:30.356Z,22.63
2022-11-27T08:21:58.440Z,17.10
2022-11-27T08:24:25.665Z,20.52
2022-11-27T08:26:52.833Z,13.85
2022-11-27T08:29:20.079Z,15.70
2022-11-27T08:31:47.296Z,15.63
2022-11-27T08:34:14.582Z,16.05
2022-11-27T08:36:41.862Z,14.93
2022-11-27T08:39:09.134Z,15.35
2022-11-27T08:41:36.360Z,15.80
2022-11-27T08:44:06.785Z,20.67
2022-11-27T08:46:36.697Z,20.42
2022-11-27T08:49:03.885Z,22.17
2022-11-27T08:51:31.073Z,21.42
2022-11-27T08:53:58.327Z,22.42
2022-11-27T08:56:26.253Z,22.90
2022-11-27T08:58:53.498Z,22.58
2022-11-27T09:01:22.012Z,23.08
2022-11-27T09:03:49.347Z,22.35
2022-11-27T09:06:18.737Z,19.98
2022-11-27T09:08:46.366Z,17.33
2022-11-27T09:11:14.339Z,25.20
2022-11-27T09:13:42.459Z,23.50
2022-11-27T09:16:11.111Z,26.13
2022-11-27T09:18:38.818Z,24.52
2022-11-27T09:21:07.621Z,26.25
2022-11-27T09:23:34.853Z,24.23
2022-11-27T09:26:03.157Z,19.85
2022-11-27T09:28:31.839Z,25.00
2022-11-27T09:30:59.992Z,27.92
2022-11-27T09:33:27.790Z,24.98
2022-11-27T09:35:57.512Z,25.55
2022-11-27T09:38:24.833Z,24.60
2022-11-27T09:40:53.757Z,38.10
2022-11-27T09:43:27.426Z,32.13
2022-11-27T09:45:57.763Z,23.52
2022-11-27T09:48:33.000Z,22.80
2022-11-27T09:51:02.807Z,18.60
2022-11-27T09:53:33.673Z,20.05
2022-11-27T09:56:03.367Z,17.50
2022-11-27T09:58:41.443Z,15.95
2022-11-27T10:01:17.118Z,22.25
2022-11-27T10:03:45.456Z,20.20
2022-11-27T10:06:12.598Z,15.57
2022-11-27T10:08:45.380Z,14.07
2022-11-27T10:11:24.186Z,13.68
2022-11-27T10:13:56.898Z,12.35
2022-11-27T10:16:28.458Z,11.00
2022-11-27T10:18:58.184Z,12.73
2022-11-27T10:21:31.766Z,11.10
2022-11-27T10:26:30.022Z,9.30
2022-11-27T10:29:07.324Z,8.27
2022-11-27T10:31:37.685Z,8.65
2022-11-27T10:34:19.014Z,9.02
2022-11-27T10:36:48.635Z,9.15
2022-11-27T10:39:41.210Z,9.57
2022-11-27T10:42:11.306Z,7.80
2022-11-27T10:44:40.679Z,5.78
2022-11-27T10:47:13.780Z,6.22
2022-11-27T10:49:41.987Z,5.72
2022-11-27T10:52:16.679Z,4.68
2022-11-27T10:54:44.651Z,5.32
2022-11-27T10:57:30.626Z,4.90
2022-11-27T11:00:10.372Z,3.97
2022-11-27T11:02:39.213Z,4.10
2022-11-27T11:08:14.835Z,4.07
2022-11-27T11:10:50.355Z,3.17
2022-11-27T11:13:19.813Z,3.35
2022-11-27T11:15:53.109Z,2.83
2022-11-27T11:18:28.445Z,3.05
2022-11-27T11:20:57.372Z,3.38
2022-11-27T11:23:26.794Z,3.00
2022-11-27T11:25:55.040Z,3.03
2022-11-27T11:28:22.624Z,2.78
2022-11-27T11:30:54.190Z,2.88
2022-11-27T11:33:21.597Z,2.90
2022-11-27T11:35:53.943Z,2.80
2022-11-27T11:38:24.475Z,3.42
2022-11-27T11:41:00.242Z,3.08
2022-11-27T11:43:28.694Z,2.90
2022-11-27T11:45:57.102Z,3.35
2022-11-27T11:48:25.656Z,3.28
2022-11-27T11:50:58.845Z,3.13
2022-11-27T11:53:32.247Z,2.83
2022-11-27T11:56:18.415Z,3.03
2022-11-27T11:58:54.975Z,3.15
2022-11-27T12:01:41.666Z,3.40
2022-11-27T12:04:14.727Z,3.47
2022-11-27T12:06:45.272Z,3.20
2022-11-27T12:09:18.662Z,3.83
2022-11-27T12:11:48.815Z,3.20
2022-11-27T12:14:36.892Z,3.30
2022-11-27T12:17:19.312Z,3.78
2022-11-27T12:19:52.993Z,3.95
2022-11-27T12:22:30.672Z,3.53
2022-11-27T12:25:04.148Z,3.90
2022-11-27T12:27:45.200Z,4.10
2022-11-27T12:30:18.516Z,3.25
2022-11-27T12:33:04.486Z,3.28
2022-11-27T12:35:37.899Z,3.35
2022-11-27T12:38:17.345Z,3.22
2022-11-27T12:40:47.370Z,3.38
2022-11-27T12:43:24.748Z,3.50
2022-11-27T12:45:56.462Z,4.07
2022-11-27T12:48:32.884Z,3.50
2022-11-27T12:51:07.732Z,3.60
2022-11-27T12:53:42.220Z,3.20
2022-11-27T12:56:11.384Z,3.45
2022-11-27T12:58:40.834Z,3.22
2022-11-27T13:01:11.022Z,3.25
2022-11-27T13:03:57.214Z,2.97
2022-11-27T13:06:27.059Z,3.47
2022-11-27T13:08:59.894Z,3.33
2022-11-27T13:11:30.149Z,6.40
2022-11-27T13:14:04.156Z,3.55
2022-11-27T13:16:34.157Z,3.50
2022-11-27T13:19:14.325Z,3.22
2022-11-27T13:21:42.166Z,3.58
2022-11-27T13:24:13.300Z,3.47
2022-11-27T13:26:45.676Z,3.08
2022-11-27T13:29:45.407Z,2.90
2022-11-27T13:32:24.560Z,3.15
2022-11-27T13:34:52.437Z,3.05
2022-11-27T13:37:27.157Z,3.50
2022-11-27T13:40:03.938Z,3.05
2022-11-27T13:42:34.144Z,3.20
2022-11-27T13:45:03.167Z,3.00
2022-11-27T13:47:31.139Z,3.42
2022-11-27T13:49:59.633Z,3.63
2022-11-27T13:52:27.097Z,3.17
2022-11-27T13:55:02.067Z,4.45
2022-11-27T13:57:30.158Z,3.58
2022-11-27T13:59:59.163Z,3.90
2022-11-27T14:02:26.875Z,4.22
2022-11-27T14:04:56.411Z,5.28
2022-11-27T14:07:24.354Z,3.55
2022-11-27T14:09:56.447Z,3.65
2022-11-27T14:12:23.579Z,3.20
2022-11-27T14:14:59.878Z,3.58
2022-11-27T14:17:28.501Z,4.20
2022-11-27T14:20:00.427Z,5.03
2022-11-27T14:22:33.627Z,4.78
2022-11-27T14:25:00.845Z,4.47
2022-11-27T14:27:33.611Z,4.40
2022-11-27T14:30:11.947Z,5.05
2022-11-27T14:32:39.280Z,4.80
2022-11-27T14:35:19.720Z,4.95
2022-11-27T14:37:46.963Z,5.85
2022-11-27T14:40:15.464Z,4.68
2022-11-27T14:42:42.653Z,4.68
2022-11-27T14:45:20.948Z,4.82
2022-11-27T14:47:50.488Z,5.57
2022-11-27T14:50:18.338Z,4.55
2022-11-27T14:52:47.934Z,4.88
2022-11-27T14:55:18.643Z,4.57
2022-11-27T14:57:47.713Z,4.50
2022-11-27T15:00:15.092Z,4.47
2022-11-27T15:02:42.392Z,4.95
2022-11-27T15:05:17.431Z,5.38
2022-11-27T15:07:50.365Z,5.53
2022-11-27T15:12:47.764Z,5.35
2022-11-27T15:15:18.955Z,5.25
2022-11-27T15:17:48.013Z,5.45
2022-11-27T15:20:16.494Z,6.32
2022-11-27T15:22:51.164Z,5.63
2022-11-27T15:25:35.774Z,5.78
2022-11-27T15:28:03.270Z,6.07
2022-11-27T15:30:30.529Z,6.13
2022-11-27T15:32:57.823Z,6.10
2022-11-27T15:35:26.773Z,5.88
2022-11-27T15:37:55.397Z,6.25
2022-11-27T15:40:28.832Z,6.15
2022-11-27T15:45:23.279Z,5.95
2022-11-27T15:47:58.200Z,5.90
2022-11-27T15:50:28.215Z,7.05
2022-11-27T15:52:55.474Z,6.15
2022-11-27T15:55:23.186Z,6.85
2022-11-27T15:57:50.345Z,6.32
2022-11-27T16:00:17.849Z,6.65
2022-11-27T16:02:45.278Z,6.57
2022-11-27T16:05:12.642Z,6.80
2022-11-27T16:07:40.025Z,7.20
2022-11-27T16:10:07.635Z,7.07
2022-11-27T16:12:35.074Z,6.45
2022-11-27T16:15:02.497Z,7.10
2022-11-27T16:17:29.736Z,6.60
2022-11-27T16:19:57.448Z,6.22
2022-11-27T16:22:24.748Z,6.88
2022-11-27T16:24:52.018Z,6.75
2022-11-27T16:27:19.269Z,6.63
2022-11-27T16:29:46.512Z,6.60
2022-11-27T16:32:13.924Z,6.95
2022-11-27T16:34:41.511Z,7.45
2022-11-27T16:37:08.993Z,7.03
2022-11-27T16:39:36.302Z,13.73
2022-11-27T16:42:03.573Z,6.93
2022-11-27T16:44:30.739Z,6.50
2022-11-27T16:46:57.966Z,6.90
2022-11-27T16:49:25.159Z,5.93
2022-11-27T16:51:52.386Z,6.60
2022-11-27T16:54:19.601Z,6.50
2022-11-27T16:56:49.830Z,7.30
2022-11-27T16:59:17.183Z,6.03
2022-11-27T17:01:44.872Z,6.50
2022-11-27T17:04:15.835Z,6.75
2022-11-27T17:06:43.056Z,6.25
2022-11-27T17:09:10.274Z,6.85
2022-11-27T17:11:38.102Z,6.50
2022-11-27T17:14:08.210Z,6.65
2022-11-27T17:16:35.808Z,6.30
2022-11-27T17:19:03.107Z,6.38
2022-11-27T17:21:32.391Z,6.15
2022-11-27T17:24:14.348Z,5.55
2022-11-27T17:26:45.173Z,5.35
2022-11-27T17:29:13.324Z,5.80
2022-11-27T17:31:40.757Z,5.80
2022-11-27T17:34:08.425Z,6.00
2022-11-27T17:36:37.338Z,5.63
2022-11-27T17:39:05.721Z,5.90
2022-11-27T17:41:33.153Z,5.50
2022-11-27T17:44:00.538Z,5.82
2022-11-27T17:46:28.696Z,6.13
2022-11-27T17:48:58.998Z,6.00
2022-11-27T17:51:28.865Z,5.78
2022-11-27T17:53:58.263Z,6.05
2022-11-27T17:56:25.552Z,6.22
2022-11-27T17:58:53.221Z,5.70
2022-11-27T18:01:21.989Z,5.90
2022-11-27T18:03:49.416Z,5.60
2022-11-27T18:06:18.290Z,5.78
2022-11-27T18:08:45.863Z,5.30
2022-11-27T18:11:15.002Z,5.55
2022-11-27T18:13:42.384Z,6.05
2022-11-27T18:16:11.669Z,6.35
2022-11-27T18:18:39.112Z,5.90
2022-11-27T18:21:14.078Z,5.43
2022-11-27T18:24:14.482Z,5.50
2022-11-27T18:26:52.444Z,5.85
2022-11-27T18:29:19.760Z,5.97
2022-11-27T18:31:47.679Z,6.38
2022-11-27T18:34:14.974Z,6.47
2022-11-27T18:36:42.346Z,6.78
2022-11-27T18:39:09.646Z,5.90
2022-11-27T18:41:37.518Z,6.20
2022-11-27T18:44:04.869Z,6.40
2022-11-27T18:46:32.108Z,6.75
2022-11-27T18:48:59.476Z,6.60
2022-11-27T18:51:26.743Z,6.63
2022-11-27T18:53:55.871Z,6.43
2022-11-27T18:56:24.516Z,6.50
2022-11-27T18:58:52.181Z,6.78
2022-11-27T19:01:21.171Z,6.97
2022-11-27T19:03:48.774Z,6.95
2022-11-27T19:06:16.872Z,7.07
2022-11-27T19:08:44.631Z,6.32
2022-11-27T19:11:13.030Z,7.63
2022-11-27T19:13:40.942Z,7.15
2022-11-27T19:16:08.814Z,7.85
2022-11-27T19:18:37.244Z,8.18
2022-11-27T19:21:18.302Z,7.93
2022-11-27T19:23:45.558Z,8.48
2022-11-27T19:26:14.203Z,9.13
2022-11-27T19:28:41.790Z,8.27
2022-11-27T19:31:10.859Z,9.20
2022-11-27T19:33:38.221Z,7.70
2022-11-27T19:36:08.558Z,8.15
2022-11-27T19:38:36.411Z,7.63
2022-11-27T19:41:04.295Z,8.13
2022-11-27T19:43:31.602Z,8.38
2022-11-27T19:45:58.956Z,8.38
2022-11-27T19:48:26.284Z,8.20
2022-11-27T19:50:53.828Z,8.55
2022-11-27T19:53:22.956Z,8.60
2022-11-27T19:55:54.585Z,8.48
2022-11-27T19:58:22.015Z,8.52
2022-11-27T20:00:49.295Z,8.55
2022-11-27T20:03:16.575Z,8.43
2022-11-27T20:05:43.816Z,8.05
2022-11-27T20:08:11.107Z,8.48
2022-11-27T20:10:38.349Z,9.00
2022-11-27T20:13:05.494Z,7.90
2022-11-27T20:15:32.859Z,8.05
2022-11-27T20:18:00.556Z,8.65
2022-11-27T20:20:32.704Z,8.98
2022-11-27T20:25:28.425Z,8.65
2022-11-27T20:27:57.294Z,9.63
2022-11-27T20:30:24.471Z,9.85
2022-11-27T20:32:54.599Z,8.40
2022-11-27T20:35:21.771Z,9.65
2022-11-27T20:37:48.964Z,8.88
2022-11-27T20:40:16.402Z,9.10
2022-11-27T20:42:43.533Z,8.32
2022-11-27T20:45:10.865Z,8.88
2022-11-27T20:47:38.030Z,8.32
2022-11-27T20:50:06.049Z,8.35
2022-11-27T20:52:33.271Z,7.97
2022-11-27T20:55:00.459Z,7.80
2022-11-27T20:57:27.862Z,8.32
2022-11-27T20:59:55.527Z,8.73
2022-11-27T21:02:22.713Z,8.20
2022-11-27T21:04:50.221Z,8.93
2022-11-27T21:07:17.466Z,8.07
2022-11-27T21:09:44.822Z,7.63
2022-11-27T21:12:13.707Z,7.13
2022-11-27T21:14:40.944Z,7.10
2022-11-27T21:17:08.453Z,7.32
2022-11-27T21:19:35.675Z,7.53
2022-11-27T21:22:02.877Z,7.40
2022-11-27T21:24:30.196Z,8.02
2022-11-27T21:26:57.457Z,8.15
2022-11-27T21:29:27.753Z,7.40
2022-11-27T21:31:57.126Z,7.50
2022-11-27T21:34:25.148Z,6.65
2022-11-27T21:36:52.295Z,7.20
2022-11-27T21:39:23.827Z,6.25
2022-11-27T21:41:52.265Z,7.13
2022-11-27T21:44:20.440Z,6.70
2022-11-27T21:46:47.610Z,6.70
2022-11-27T21:49:15.980Z,6.68
2022-11-27T21:51:43.459Z,6.85
2022-11-27T21:54:12.834Z,6.25
2022-11-27T21:56:40.815Z,6.35
2022-11-27T21:59:09.448Z,5.57
2022-11-27T22:01:36.978Z,6.63
2022-11-27T22:04:04.595Z,6.30
2022-11-27T22:06:36.485Z,6.30
2022-11-27T22:09:04.366Z,6.47
2022-11-27T22:11:31.750Z,6.57
2022-11-27T22:14:00.351Z,6.13
2022-11-27T22:16:29.051Z,6.53
2022-11-27T22:18:57.420Z,6.15
2022-11-27T22:21:25.123Z,6.97
2022-11-27T22:23:52.373Z,6.63
2022-11-27T22:26:20.783Z,6.47
2022-11-27T22:28:48.383Z,6.45
2022-11-27T22:31:20.179Z,6.78
2022-11-27T22:33:47.678Z,7.13
2022-11-27T22:36:19.220Z,6.35
2022-11-27T22:38:48.925Z,6.47
2022-11-27T22:41:16.433Z,6.60
2022-11-27T22:43:44.691Z,6.50
2022-11-27T22:46:13.861Z,8.10
2022-11-27T22:48:41.114Z,6.80
2022-11-27T22:51:08.530Z,6.90
2022-11-27T22:53:35.787Z,7.57
2022-11-27T22:56:10.617Z,7.05
2022-11-27T22:58:41.397Z,8.02
2022-11-27T23:01:10.918Z,6.78
2022-11-27T23:03:38.851Z,6.57
2022-11-27T23:06:11.505Z,6.72
2022-11-27T23:08:39.512Z,7.47
2022-11-27T23:11:07.190Z,6.63
2022-11-27T23:13:34.390Z,6.93
2022-11-27T23:16:04.030Z,6.57
2022-11-27T23:18:31.666Z,7.03
2022-11-27T23:20:58.925Z,6.55
2022-11-27T23:23:26.215Z,7.15
2022-11-27T23:25:53.418Z,6.65
2022-11-27T23:28:20.579Z,7.15
2022-11-27T23:30:50.297Z,6.63
2022-11-27T23:33:26.402Z,6.82
2022-11-27T23:36:00.370Z,6.05
2022-11-27T23:38:28.321Z,6.38
2022-11-27T23:40:56.119Z,6.10
2022-11-27T23:43:23.685Z,6.20
2022-11-27T23:45:50.906Z,6.30
2022-11-27T23:48:18.117Z,6.53
2022-11-27T23:50:45.340Z,5.55
2022-11-27T23:53:12.590Z,6.45
2022-11-27T23:55:39.778Z,6.20
2022-11-27T23:58:07.097Z,6.32
